Você está na página 1de 25

Time Torque (Nm) Time Speed (rpm) Time Power (kW)

8:28:14 12.04 8:28:14 0 8:28:14 0


8:28:14 11.97 8:28:14 158 8:28:14 0.1976
8:28:14 12.18 8:28:14 263 8:28:14 0.3352
8:28:14 12.25 8:28:14 333 8:28:14 0.4268
8:28:14 12.58 8:28:14 380 8:28:14 0.5001
8:28:14 12.69 8:28:14 411 8:28:14 0.5459
8:28:14 12.86 8:28:14 431 8:28:14 0.5809
Potência(kW) - Sem Carga Torque (Nm) - Sem Carga
8:28:14 12.88 8:28:14 570 8:28:14 0.7684
1.8 14
8:28:14 13.01 8:28:14 662 8:28:14 0.9013
1.6
8:28:14 13.14 8:28:14 723 8:28:14 0.9952 12
1.4
8:28:14 13.24 8:28:14 764 8:28:14 1.0595 10
1.2
8:28:14 13.19 8:28:14 791 8:28:14 1.0928
1 8
8:28:14 13.14 8:28:14 896 8:28:14 1.2322
0.8
8:28:14 13.14 8:28:14 965 8:28:14 1.3276 6
0.6
8:28:14 12.99 8:28:14 1011 8:28:14 1.3752
4
0.4
8:28:14 12.71 8:28:14 1112 8:28:14 1.4803
0.2
8:28:14 12.35 8:28:14 1180 8:28:14 1.5253 2
0
8:28:14 11.96 8:28:14 1224 8:28:14 1.5327 0
:14 :14 :14 :14 :14 :14 :14 :14 :15 :15 :15 :15 :15 :15 :15 :15 :15 :16 :16 :16 :16 4 4 4 4 4 4 4 4 5 5 5 5 5 5 5 6 6 6 6
28 28 28 28 28 2811.32
8:28:14 28 28 288:28:14
28 28 28 28 28 21254 8 28 28 8:28:14
28 28 28 28 1.487 8:1 8:1 8:1 8:1 8:1 8:1 8:1 8:1 8:1 8:1 8:1 8:1 8:1 8:1 8:1 8:1 8:1 8:1 8:1
8: 8: 8: 8: 8: 8: 8: 8: 8: 8: 8: 8: 8: 8: 8: 8: 8: 8: 8: 8: 8: 2 2 2 2 2 2 2 2 2 2 2 2 2 2 2 2 2 2 2
8: 8: 8: 8: 8: 8: 8: 8: 8: 8: 8: 8: 8: 8: 8: 8: 8: 8: 8:
8:28:14 10.66 8:28:14 1331 8:28:14 1.4858
8:28:14 9.87 8:28:14 1382 8:28:14 1.4275
8:28:14 9.02 8:28:14 1416 8:28:14 1.3367
8:28:14 8.07 8:28:14 1481 8:28:14 1.252
8:28:14 7.16 8:28:14 1525 8:28:14 1.1431
8:28:14 6.21 8:28:14 1554 8:28:14 1.0103
8:28:14 5.31 8:28:14 1602 8:28:14 0.8912
8:28:14 4.47 8:28:14 1635 8:28:14 0.7643
8:28:14 3.75 8:28:14 1673 8:28:14 0.6568
8:28:14 3.1 8:28:14 1698 8:28:14 0.5514
8:28:14 2.53 8:28:14 1715 8:28:14 0.4547
8:28:14 2.11 8:28:14 1735 8:28:14 0.3837
8:28:14 1.71 8:28:14 1749 8:28:14 0.3123
8:28:14 1.4 8:28:14 1758 8:28:14 0.257
8:28:14 1.17 8:28:14 1768 8:28:14 0.2164
8:28:14 0.98 8:28:14 1775 8:28:14 0.1819
8:28:14 0.85 8:28:14 1779 8:28:14 0.159
8:28:14 0.77 8:28:14 1783 8:28:14 0.143
8:28:14 0.62 8:28:14 1786 8:28:14 0.1156
8:28:14 0.59 8:28:14 1789 8:28:14 0.1109
8:28:14 0.56 8:28:14 1791 8:28:14 0.1051
8:28:14 0.46 8:28:14 1792 8:28:14 0.0871
8:28:14 0.54 8:28:14 1792 8:28:14 0.1005
8:28:14 0.47 8:28:14 1793 8:28:14 0.0881
8:28:14 0.39 8:28:14 1793 8:28:14 0.0735
8:28:14 0.34 8:28:14 1795 8:28:14 0.0641
8:28:14 0.29 8:28:14 1795 8:28:14 0.0552
8:28:14 0.29 8:28:14 1796 8:28:14 0.0554
8:28:14 0.25 8:28:14 1797 8:28:14 0.048
8:28:14 0.18 8:28:14 1797 8:28:14 0.0332
8:28:14 0.13 8:28:14 1797 8:28:14 0.0254
8:28:14 0.08 8:28:14 1797 8:28:14 0.0141
8:28:14 0.05 8:28:14 1796 8:28:14 0.0101
8:28:14 0.06 8:28:14 1797 8:28:14 0.012
8:28:14 0.08 8:28:14 1797 8:28:14 0.0144
8:28:14 0.09 8:28:14 1798 8:28:14 0.0169
8:28:14 0.11 8:28:14 1797 8:28:14 0.0206
8:28:14 0.11 8:28:14 1797 8:28:14 0.0198
8:28:14 0.16 8:28:14 1796 8:28:14 0.0306
8:28:14 0.18 8:28:14 1796 8:28:14 0.0334
8:28:14 0.15 8:28:14 1795 8:28:14 0.0284
8:28:14 0.16 8:28:14 1796 8:28:14 0.0308
8:28:14 0.2 8:28:14 1796 8:28:14 0.0368
8:28:14 0.16 8:28:14 1796 8:28:14 0.0301
8:28:14 0.15 8:28:14 1794 8:28:14 0.0288
8:28:14 0.17 8:28:14 1793 8:28:14 0.031
8:28:14 0.2 8:28:14 1792 8:28:14 0.0377
8:28:14 0.21 8:28:14 1794 8:28:14 0.0396
8:28:14 0.18 8:28:14 1795 8:28:14 0.0334
8:28:14 0.2 8:28:14 1796 8:28:14 0.0382
8:28:14 0.19 8:28:14 1797 8:28:14 0.0365
8:28:14 0.15 8:28:14 1797 8:28:14 0.0282
8:28:14 0.15 8:28:14 1794 8:28:14 0.0275
8:28:14 0.17 8:28:14 1793 8:28:14 0.0313
8:28:14 0.17 8:28:14 1791 8:28:14 0.0322
8:28:14 0.19 8:28:14 1793 8:28:14 0.0354
8:28:14 0.18 8:28:14 1795 8:28:14 0.0335
8:28:14 0.18 8:28:14 1797 8:28:14 0.0331
8:28:14 0.18 8:28:14 1798 8:28:14 0.0334
8:28:14 0.18 8:28:14 1799 8:28:14 0.033
8:28:15 0.18 8:28:15 1796 8:28:15 0.0345
8:28:15 0.2 8:28:15 1794 8:28:15 0.038
8:28:15 0.17 8:28:15 1793 8:28:15 0.032
8:28:15 0.17 8:28:15 1794 8:28:15 0.0318
8:28:15 0.18 8:28:15 1795 8:28:15 0.0331
8:28:15 0.17 8:28:15 1796 8:28:15 0.0323
8:28:15 0.18 8:28:15 1798 8:28:15 0.0334
8:28:15 0.17 8:28:15 1798 8:28:15 0.0328
8:28:15 0.17 8:28:15 1796 8:28:15 0.0314
8:28:15 0.18 8:28:15 1794 8:28:15 0.0342
8:28:15 0.15 8:28:15 1792 8:28:15 0.0275
8:28:15 0.15 8:28:15 1794 8:28:15 0.0285
8:28:15 0.18 8:28:15 1794 8:28:15 0.0343
8:28:15 0.17 8:28:15 1795 8:28:15 0.031
8:28:15 0.15 8:28:15 1797 8:28:15 0.0289
8:28:15 0.15 8:28:15 1798 8:28:15 0.0274
8:28:15 0.15 8:28:15 1795 8:28:15 0.0276
8:28:15 0.16 8:28:15 1793 8:28:15 0.0299
8:28:15 0.16 8:28:15 1792 8:28:15 0.0304
8:28:15 0.17 8:28:15 1794 8:28:15 0.0327
8:28:15 0.19 8:28:15 1794 8:28:15 0.0349
8:28:15 0.14 8:28:15 1795 8:28:15 0.0271
8:28:15 0.13 8:28:15 1797 8:28:15 0.0236
8:28:15 0.16 8:28:15 1798 8:28:15 0.03
8:28:15 0.15 8:28:15 1798 8:28:15 0.0287
8:28:15 0.13 8:28:15 1796 8:28:15 0.0247
8:28:15 0.14 8:28:15 1794 8:28:15 0.0254
8:28:15 0.16 8:28:15 1795 8:28:15 0.0297
8:28:15 0.15 8:28:15 1795 8:28:15 0.0291
8:28:15 0.13 8:28:15 1795 8:28:15 0.025
8:28:15 0.15 8:28:15 1797 8:28:15 0.028
8:28:15 0.17 8:28:15 1798 8:28:15 0.0314
8:28:15 0.12 8:28:15 1799 8:28:15 0.0228
8:28:15 0.11 8:28:15 1796 8:28:15 0.0201
8:28:15 0.14 8:28:15 1794 8:28:15 0.0262
8:28:15 0.16 8:28:15 1795 8:28:15 0.0308
8:28:15 0.14 8:28:15 1795 8:28:15 0.0264
8:28:15 0.14 8:28:15 1795 8:28:15 0.0257
8:28:15 0.15 8:28:15 1797 8:28:15 0.0273
8:28:15 0.15 8:28:15 1798 8:28:15 0.0275
8:28:15 0.14 8:28:15 1799 8:28:15 0.0257
8:28:15 0.16 8:28:15 1796 8:28:15 0.0307
8:28:15 0.19 8:28:15 1794 8:28:15 0.0352
8:28:15 0.16 8:28:15 1793 8:28:15 0.0293
8:28:15 0.14 8:28:15 1794 8:28:15 0.026
8:28:15 0.14 8:28:15 1794 8:28:15 0.0255
8:28:15 0.15 8:28:15 1796 8:28:15 0.0283
8:28:15 0.13 8:28:15 1798 8:28:15 0.0253
8:28:15 0.13 8:28:15 1798 8:28:15 0.0236
8:28:15 0.14 8:28:15 1796 8:28:15 0.0259
8:28:15 0.17 8:28:15 1794 8:28:15 0.0311
8:28:15 0.14 8:28:15 1792 8:28:15 0.0266
8:28:15 0.16 8:28:15 1794 8:28:15 0.0299
8:28:15 0.18 8:28:15 1794 8:28:15 0.0333
8:28:15 0.14 8:28:15 1795 8:28:15 0.026
8:28:15 0.13 8:28:15 1797 8:28:15 0.0238
8:28:15 0.14 8:28:15 1798 8:28:15 0.0269
8:28:15 0.13 8:28:15 1795 8:28:15 0.0252
8:28:15 0.13 8:28:15 1793 8:28:15 0.0252
8:28:15 0.13 8:28:15 1792 8:28:15 0.0246
8:28:15 0.18 8:28:15 1794 8:28:15 0.0338
8:28:15 0.18 8:28:15 1794 8:28:15 0.0338
8:28:15 0.14 8:28:15 1795 8:28:15 0.027
8:28:15 0.14 8:28:15 1797 8:28:15 0.027
8:28:15 0.17 8:28:15 1798 8:28:15 0.0322
8:28:15 0.16 8:28:15 1798 8:28:15 0.0302
8:28:15 0.13 8:28:15 1796 8:28:15 0.0251
8:28:15 0.12 8:28:15 1794 8:28:15 0.0231
8:28:15 0.13 8:28:15 1795 8:28:15 0.025
8:28:15 0.14 8:28:15 1795 8:28:15 0.0257
8:28:15 0.12 8:28:15 1795 8:28:15 0.023
8:28:15 0.14 8:28:15 1797 8:28:15 0.0267
8:28:15 0.16 8:28:15 1798 8:28:15 0.0308
8:28:15 0.12 8:28:15 1799 8:28:15 0.023
8:28:15 0.12 8:28:15 1796 8:28:15 0.0217
8:28:15 0.13 8:28:15 1794 8:28:15 0.0249
8:28:15 0.15 8:28:15 1795 8:28:15 0.0276
8:28:15 0.14 8:28:15 1795 8:28:15 0.0263
8:28:15 0.14 8:28:15 1795 8:28:15 0.0265
8:28:15 0.15 8:28:15 1797 8:28:15 0.029
8:28:15 0.16 8:28:15 1798 8:28:15 0.0295
8:28:15 0.15 8:28:15 1799 8:28:15 0.0284
8:28:16 0.16 8:28:16 1796 8:28:16 0.0305
8:28:16 0.17 8:28:16 1794 8:28:16 0.0322
8:28:16 0.15 8:28:16 1793 8:28:16 0.0276
8:28:16 0.16 8:28:16 1794 8:28:16 0.03
8:28:16 0.15 8:28:16 1794 8:28:16 0.0281
8:28:16 0.15 8:28:16 1796 8:28:16 0.0284
8:28:16 0.13 8:28:16 1798 8:28:16 0.0254
8:28:16 0.13 8:28:16 1798 8:28:16 0.0236
8:28:16 0.15 8:28:16 1796 8:28:16 0.0276
8:28:16 0.16 8:28:16 1794 8:28:16 0.0297
8:28:16 0.14 8:28:16 1792 8:28:16 0.0262
8:28:16 0.16 8:28:16 1794 8:28:16 0.0294
8:28:16 0.18 8:28:16 1794 8:28:16 0.0335
8:28:16 0.17 8:28:16 1795 8:28:16 0.0328
8:28:16 0.16 8:28:16 1797 8:28:16 0.0309
8:28:16 0.17 8:28:16 1798 8:28:16 0.0319
8:28:16 0.17 8:28:16 1795 8:28:16 0.0317
8:28:16 0.16 8:28:16 1793 8:28:16 0.0304
8:28:16 0.14 8:28:16 1792 8:28:16 0.0267
8:28:16 0.16 8:28:16 1794 8:28:16 0.0294
8:28:16 0.17 8:28:16 1794 8:28:16 0.0323
8:28:16 0.13 8:28:16 1795 8:28:16 0.0242
8:28:16 0.14 8:28:16 1797 8:28:16 0.0263
8:28:16 0.17 8:28:16 1798 8:28:16 0.0324
8:28:16 0.17 8:28:16 1798 8:28:16 0.0315
8:28:16 0.14 8:28:16 1796 8:28:16 0.0262
8:28:16 0.14 8:28:16 1794 8:28:16 0.0265
8:28:16 0.16 8:28:16 1795 8:28:16 0.0295
8:28:16 0.15 8:28:16 1795 8:28:16 0.0281
8:28:16 0.14 8:28:16 1795 8:28:16 0.0258
8:28:16 0.16 8:28:16 1797 8:28:16 0.0294
8:28:16 0.17 8:28:16 1798 8:28:16 0.0312
8:28:16 0.13 8:28:16 1799 8:28:16 0.0252
8:28:16 0.13 8:28:16 1796 8:28:16 0.0241
8:28:16 0.15 8:28:16 1794 8:28:16 0.0291
8:28:16 0.16 8:28:16 1795 8:28:16 0.0307
8:28:16 0.15 8:28:16 1795 8:28:16 0.028
8:28:16 0.13 8:28:16 1795 8:28:16 0.0245
8:28:16 0.12 8:28:16 1797 8:28:16 0.0231
8:28:16 0.14 8:28:16 1798 8:28:16 0.0256
8:28:16 0.13 8:28:16 1799 8:28:16 0.0246
8:28:16 0.16 8:28:16 1796 8:28:16 0.03
8:28:16 0.19 8:28:16 1794 8:28:16 0.0359
Carga Velocidade (rpm) - Sem Carga
2000
1800
1600
1400
1200
1000
800
600
400
200
0
15 15 15 16 16 16 16 4 4 4 4 4 4 4 4 5 5 5 5 5 5 5 6 6 6 6
8: 28: 28: 28: 28: 28: 28: :1 :1 :1 :1 :1 :1 :1 :1 :1 :1 :1 :1 :1 :1 :1 :1 :1 :1 :1
8: 8: 8: 8: 8: 8: :28 :28 :28 :28 :28 :28 :28 :28 :28 :28 :28 :28 :28 :28 :28 :28 :28 :28 :28
8 8 8 8 8 8 8 8 8 8 8 8 8 8 8 8 8 8 8
Time Torque (Nm) Time Speed (rpm) Time Power (kW)
8:36:32 12.04 8:36:32 0 8:36:32 0
8:36:32 8.45 8:36:32 5 8:36:32 0.0041
8:36:32 10.26 8:36:32 8 8:36:32 0.0084
8:36:32 10.78 8:36:32 10 8:36:32 0.0111 Torque (Nm)
8:36:32
Power (kW)
10.53 8:36:32 11 8:36:32 0.0124 16
1.8
8:36:32 10.97 8:36:32 12 8:36:32 0.014
1.6 14
8:36:32 10.6 8:36:32 13 8:36:32 0.0142
1.4 12
8:36:32 11.22 8:36:32 13 8:36:32 0.0155
1.2
8:36:32 10.94 8:36:32 13 8:36:32 0.0154 10
1
8:36:32 11.17 8:36:32 14 8:36:32 0.0159 8
0.8
8:36:32 11.16 8:36:32 14 8:36:32 0.0161 6
0.6
8:36:32 11.32 8:36:32 14 8:36:32 0.0164
4
0.4
8:36:32 11.53 8:36:32 14 8:36:32 0.0168
2
8:36:32
0.2 11.52 8:36:32 14 8:36:32 0.0168
8:36:32
0 11.67 8:36:32 14 8:36:32 0.017 0 2 2 2 2 2 2 3 3 3 3 3 3 3 3 4 4 4 4 4 4
2 2 2 2 2 2 3 3 3 3 3 3 3 4 4 4 4 4 4 4 :3 :3 :3 :3 :3 :3 :3 :3 :3 :3 :3 :3 :3 :3 :3 :3 :3 :3 :3 :3
:3 :3 :3 :3 :3 11.68
8:36:32 :3 :3 :38:36:32
:3 :3 :3 :3 :3 :3139 :3 :3 8:36:32
:3 :3 :3 :3 0.1696 :36 :36 :36 :36 :36 :36 :36 :36 :36 :36 :36 :36 :36 :36 :36 :36 :36 :36 :36 :36 :3
:36 :36 :36 :36 :36 :36 :36 :36 :36 :36 :36 :36 :36 :36 :36 :36 :36 :36 :36 :36 8 8 8 8 8 8 8 8 8 8 8 8 8 8 8 8 8 8 8 8 8
8 8 8 8 8 8 8 8 8 8 8 8 8 8 8 8 8 8 8 8
8:36:32 11.8 8:36:32 222 8:36:32 0.2741
8:36:32 11.83 8:36:32 277 8:36:32 0.3433
8:36:32 12.04 8:36:32 314 8:36:32 0.396
8:36:32 12.15 8:36:32 339 8:36:32 0.4309
8:36:32 12.34 8:36:32 355 8:36:32 0.4588
8:36:32 12.46 8:36:32 366 8:36:32 0.4777
8:36:32 12.51 8:36:32 373 8:36:32 0.489
8:36:32 12.5 8:36:32 465 8:36:32 0.6083
8:36:32 12.55 8:36:32 526 8:36:32 0.6913
8:36:32 12.66 8:36:32 567 8:36:32 0.7513
8:36:32 12.86 8:36:32 594 8:36:32 0.7994
8:36:32 12.97 8:36:32 612 8:36:32 0.8308
8:36:32 13.04 8:36:32 624 8:36:32 0.8515
8:36:32 13.03 8:36:32 693 8:36:32 0.9447
8:36:32 13.08 8:36:32 738 8:36:32 1.0115
8:36:32 13.24 8:36:32 769 8:36:32 1.0656
8:36:32 13.35 8:36:32 789 8:36:32 1.1029
8:36:32 13.37 8:36:32 803 8:36:32 1.1235
8:36:32 13.34 8:36:32 864 8:36:32 1.2068
8:36:32 13.44 8:36:32 905 8:36:32 1.2734
8:36:32 13.53 8:36:32 932 8:36:32 1.3209
8:36:32 13.56 8:36:32 951 8:36:32 1.3493
8:36:32 13.48 8:36:32 1011 8:36:32 1.4266
8:36:32 13.49 8:36:32 1051 8:36:32 1.4851
8:36:32 13.5 8:36:32 1078 8:36:32 1.5241
8:36:32 13.45 8:36:32 1096 8:36:32 1.5434
8:36:32 13.28 8:36:32 1152 8:36:32 1.6025
8:36:32 13.19 8:36:32 1189 8:36:32 1.6429
8:36:32 13.1 8:36:32 1214 8:36:32 1.6653
8:36:32 12.83 8:36:32 1231 8:36:32 1.6539
8:36:32 12.6 8:36:32 1281 8:36:32 1.6897
8:36:32 12.34 8:36:32 1314 8:36:32 1.6985
8:36:32 12.01 8:36:32 1337 8:36:32 1.6813
8:36:32 11.55 8:36:32 1385 8:36:32 1.6753
8:36:32 11.2 8:36:32 1418 8:36:32 1.6624
8:36:32 10.71 8:36:32 1440 8:36:32 1.6143
8:36:32 10.25 8:36:32 1482 8:36:32 1.5904
8:36:32 9.73 8:36:32 1510 8:36:32 1.5388
8:36:32 9.25 8:36:32 1529 8:36:32 1.4811
8:36:32 8.7 8:36:32 1561 8:36:32 1.4221
8:36:32 8.27 8:36:32 1583 8:36:32 1.3714
8:36:32 7.78 8:36:32 1598 8:36:32 1.3012
8:36:32 7.36 8:36:32 1622 8:36:32 1.2494
8:36:33 6.96 8:36:33 1638 8:36:33 1.1934
8:36:33 6.58 8:36:33 1649 8:36:33 1.1358
8:36:33 6.25 8:36:33 1665 8:36:33 1.09
8:36:33 5.99 8:36:33 1675 8:36:33 1.0511
8:36:33 5.72 8:36:33 1683 8:36:33 1.007
8:36:33 5.51 8:36:33 1693 8:36:33 0.9772
8:36:33 5.39 8:36:33 1700 8:36:33 0.9585
8:36:33 5.17 8:36:33 1704 8:36:33 0.9218
8:36:33 5.05 8:36:33 1710 8:36:33 0.9045
8:36:33 4.91 8:36:33 1715 8:36:33 0.8822
8:36:33 4.81 8:36:33 1717 8:36:33 0.8645
8:36:33 4.71 8:36:33 1721 8:36:33 0.849
8:36:33 4.65 8:36:33 1723 8:36:33 0.8384
8:36:33 4.54 8:36:33 1726 8:36:33 0.8206
8:36:33 4.54 8:36:33 1728 8:36:33 0.8212
8:36:33 4.45 8:36:33 1729 8:36:33 0.8052
8:36:33 4.44 8:36:33 1731 8:36:33 0.804
8:36:33 4.42 8:36:33 1732 8:36:33 0.8007
8:36:33 4.38 8:36:33 1733 8:36:33 0.7948
8:36:33 4.35 8:36:33 1733 8:36:33 0.7893
8:36:33 4.38 8:36:33 1733 8:36:33 0.7951
8:36:33 4.31 8:36:33 1734 8:36:33 0.783
8:36:33 4.35 8:36:33 1734 8:36:33 0.7899
8:36:33 4.35 8:36:33 1734 8:36:33 0.7898
8:36:33 4.34 8:36:33 1735 8:36:33 0.7875
8:36:33 4.36 8:36:33 1735 8:36:33 0.7915
8:36:33 4.35 8:36:33 1735 8:36:33 0.7897
8:36:33 4.33 8:36:33 1735 8:36:33 0.7868
8:36:33 4.36 8:36:33 1735 8:36:33 0.7925
8:36:33 4.34 8:36:33 1735 8:36:33 0.789
8:36:33 4.34 8:36:33 1735 8:36:33 0.7883
8:36:33 4.36 8:36:33 1735 8:36:33 0.7915
8:36:33 4.33 8:36:33 1735 8:36:33 0.7861
8:36:33 4.35 8:36:33 1735 8:36:33 0.7903
8:36:33 4.34 8:36:33 1735 8:36:33 0.7878
8:36:33 4.32 8:36:33 1735 8:36:33 0.7842
8:36:33 4.3 8:36:33 1735 8:36:33 0.7812
8:36:33 4.34 8:36:33 1735 8:36:33 0.7876
8:36:33 4.32 8:36:33 1735 8:36:33 0.7846
8:36:33 4.36 8:36:33 1735 8:36:33 0.7924
8:36:33 4.31 8:36:33 1735 8:36:33 0.7833
8:36:33 4.33 8:36:33 1735 8:36:33 0.7865
8:36:33 4.32 8:36:33 1735 8:36:33 0.7855
8:36:33 4.32 8:36:33 1735 8:36:33 0.7852
8:36:33 4.32 8:36:33 1735 8:36:33 0.785
8:36:33 4.38 8:36:33 1735 8:36:33 0.7962
8:36:33 4.29 8:36:33 1735 8:36:33 0.7795
8:36:33 4.34 8:36:33 1735 8:36:33 0.7878
8:36:33 4.32 8:36:33 1735 8:36:33 0.7853
8:36:33 4.32 8:36:33 1735 8:36:33 0.785
8:36:33 4.31 8:36:33 1735 8:36:33 0.7829
8:36:33 4.34 8:36:33 1735 8:36:33 0.7876
8:36:33 4.32 8:36:33 1735 8:36:33 0.7841
8:36:33 4.35 8:36:33 1735 8:36:33 0.7903
8:36:33 4.3 8:36:33 1735 8:36:33 0.7814
8:36:33 4.31 8:36:33 1735 8:36:33 0.7838
8:36:33 4.33 8:36:33 1735 8:36:33 0.7866
8:36:33 4.32 8:36:33 1735 8:36:33 0.7847
8:36:33 4.34 8:36:33 1735 8:36:33 0.788
8:36:33 4.38 8:36:33 1735 8:36:33 0.7955
8:36:33 4.31 8:36:33 1735 8:36:33 0.7834
8:36:33 4.33 8:36:33 1735 8:36:33 0.7866
8:36:33 4.33 8:36:33 1735 8:36:33 0.7862
8:36:33 4.29 8:36:33 1735 8:36:33 0.78
8:36:33 4.33 8:36:33 1735 8:36:33 0.7865
8:36:33 4.31 8:36:33 1735 8:36:33 0.7828
8:36:33 4.3 8:36:33 1735 8:36:33 0.7806
8:36:33 4.32 8:36:33 1735 8:36:33 0.7841
8:36:33 4.33 8:36:33 1735 8:36:33 0.7859
8:36:33 4.32 8:36:33 1735 8:36:33 0.7854
8:36:33 4.37 8:36:33 1735 8:36:33 0.7932
8:36:33 4.32 8:36:33 1735 8:36:33 0.7842
8:36:33 4.35 8:36:33 1735 8:36:33 0.7896
8:36:33 4.33 8:36:33 1735 8:36:33 0.7868
8:36:33 4.32 8:36:33 1735 8:36:33 0.784
8:36:33 4.3 8:36:33 1735 8:36:33 0.7814
8:36:33 4.34 8:36:33 1735 8:36:33 0.7886
8:36:33 4.31 8:36:33 1735 8:36:33 0.7822
8:36:33 4.35 8:36:33 1735 8:36:33 0.7907
8:36:33 4.31 8:36:33 1735 8:36:33 0.7823
8:36:33 4.33 8:36:33 1735 8:36:33 0.7872
8:36:34 4.31 8:36:34 1735 8:36:34 0.7835
8:36:34 4.3 8:36:34 1735 8:36:34 0.7819
8:36:34 4.29 8:36:34 1735 8:36:34 0.7786
8:36:34 4.34 8:36:34 1735 8:36:34 0.7886
8:36:34 4.29 8:36:34 1735 8:36:34 0.7786
8:36:34 4.33 8:36:34 1735 8:36:34 0.7872
8:36:34 4.33 8:36:34 1735 8:36:34 0.7858
8:36:34 4.32 8:36:34 1735 8:36:34 0.7848
8:36:34 4.31 8:36:34 1735 8:36:34 0.7827
8:36:34 4.33 8:36:34 1735 8:36:34 0.7867
8:36:34 4.31 8:36:34 1735 8:36:34 0.7837
8:36:34 4.36 8:36:34 1735 8:36:34 0.7929
8:36:34 4.32 8:36:34 1735 8:36:34 0.7842
8:36:34 4.31 8:36:34 1735 8:36:34 0.7829
8:36:34 4.34 8:36:34 1735 8:36:34 0.7876
8:36:34 4.33 8:36:34 1735 8:36:34 0.7866
8:36:34 4.34 8:36:34 1735 8:36:34 0.7878
8:36:34 4.37 8:36:34 1735 8:36:34 0.7931
8:36:34 4.3 8:36:34 1735 8:36:34 0.781
8:36:34 4.33 8:36:34 1735 8:36:34 0.7858
8:36:34 4.32 8:36:34 1735 8:36:34 0.7854
8:36:34 4.3 8:36:34 1735 8:36:34 0.7817
8:36:34 4.33 8:36:34 1735 8:36:34 0.7871
8:36:34 4.33 8:36:34 1735 8:36:34 0.7873
8:36:34 4.35 8:36:34 1735 8:36:34 0.7903
8:36:34 4.36 8:36:34 1735 8:36:34 0.7911
8:36:34 4.31 8:36:34 1735 8:36:34 0.7836
8:36:34 4.29 8:36:34 1735 8:36:34 0.7786
8:36:34 4.34 8:36:34 1735 8:36:34 0.7875
8:36:34 4.29 8:36:34 1735 8:36:34 0.7796
8:36:34 4.32 8:36:34 1735 8:36:34 0.7843
8:36:34 4.32 8:36:34 1735 8:36:34 0.7843
8:36:34 4.32 8:36:34 1735 8:36:34 0.7844
8:36:34 4.34 8:36:34 1735 8:36:34 0.7875
8:36:34 4.36 8:36:34 1735 8:36:34 0.7912
8:36:34 4.3 8:36:34 1735 8:36:34 0.7812
8:36:34 4.35 8:36:34 1735 8:36:34 0.7906
8:36:34 4.3 8:36:34 1735 8:36:34 0.7811
8:36:34 4.32 8:36:34 1735 8:36:34 0.7855
8:36:34 4.32 8:36:34 1735 8:36:34 0.7852
8:36:34 4.34 8:36:34 1735 8:36:34 0.7877
8:36:34 4.3 8:36:34 1735 8:36:34 0.7814
8:36:34 4.34 8:36:34 1735 8:36:34 0.7891
8:36:34 4.29 8:36:34 1735 8:36:34 0.78
8:36:34 4.33 8:36:34 1735 8:36:34 0.786
8:36:34 4.33 8:36:34 1735 8:36:34 0.7863
8:36:34 4.32 8:36:34 1735 8:36:34 0.7849
8:36:34 4.31 8:36:34 1735 8:36:34 0.7822
8:36:34 4.33 8:36:34 1735 8:36:34 0.7866
8:36:34 4.3 8:36:34 1735 8:36:34 0.7809
8:36:34 4.34 8:36:34 1735 8:36:34 0.7879
8:36:34 4.29 8:36:34 1735 8:36:34 0.7793
8:36:34 4.32 8:36:34 1735 8:36:34 0.7841
8:36:34 4.33 8:36:34 1735 8:36:34 0.7862
8:36:34 4.32 8:36:34 1735 8:36:34 0.7839
8:36:34 4.31 8:36:34 1735 8:36:34 0.783
8:36:34 4.34 8:36:34 1735 8:36:34 0.7879
8:36:34 4.29 8:36:34 1735 8:36:34 0.7787
8:36:34 4.31 8:36:34 1735 8:36:34 0.7823
8:36:34 4.31 8:36:34 1735 8:36:34 0.7833
8:36:34 4.29 8:36:34 1735 8:36:34 0.7784
8:36:34 4.3 8:36:34 1735 8:36:34 0.7813
8:36:34 4.3 8:36:34 1735 8:36:34 0.7804
8:36:34 4.31 8:36:34 1735 8:36:34 0.7826
8:36:34 4.31 8:36:34 1735 8:36:34 0.7832
8:36:34 4.3 8:36:34 1735 8:36:34 0.782
8:36:34 4.27 8:36:34 1735 8:36:34 0.7764
8:36:34 4.32 8:36:34 1735 8:36:34 0.7849
8:36:34 4.28 8:36:34 1735 8:36:34 0.7781
8:36:34 4.32 8:36:34 1735 8:36:34 0.7852
8:36:34 4.34 8:36:34 1735 8:36:34 0.7889
8:36:34 4.33 8:36:34 1735 8:36:34 0.7857
8:36:34 4.32 8:36:34 1735 8:36:34 0.7848
8:36:34 4.37 8:36:34 1735 8:36:34 0.7941
8:36:34 4.3 8:36:34 1735 8:36:34 0.7803
Nm) Speed (rpm)
2000
1800
1600
1400
1200
1000
800
600
400
200
0
33 :33 :33 :34 :34 :34 :34 :34 :34 :34 :34 2 2 2 2 2 2 3 3 3 3 3 3 3 3 4 4 4 4 4 4 4 4
:3 :3 :3 :3 :3 :3 :3 :3 :3 :3 :3 :3 :3 :3 :3 :3 :3 :3 :3 :3 :3 :3
36 36 36 36 36 36 36 36 36 36 36 36 36 36 36 36 36 36 36 36 36 36 36 36 36 36 36 36 36 36 36 36
8: 8: 8: 8: 8: 8: 8: 8: 8: 8: 8: 8: 8: 8: 8: 8: 8: 8: 8: 8: 8: 8: 8: 8: 8: 8: 8: 8: 8: 8: 8: 8:
Sem Carga Com Carga

Amostra Torque (Nm) - Velocidade (rpm) Potência(kW) Torque (Nm) Velocidade (rpm) Potência(kW)-
Sem Carga - Sem Carga - Sem Carga - Com Carga - Com Carga Com Carga 2,000.00
1 12.04 0 0 12.04 0 0
1,800.00
2 11.97 158 0.1976 8.45 5 0.0041
3 12.18 263 0.3352 10.26 8 0.0084 1,600.00
4 12.25 333 0.4268 10.78 10 0.0111
1,400.00
5 12.58 380 0.5001 10.53 11 0.0124
6 12.69 411 0.5459 10.97 12 0.014 1,200.00
7 12.86 431 0.5809 10.6 13 0.0142
8 12.88 570 0.7684 11.22 13 0.0155 1,000.00

rpm
16.00
9 13.01 662 0.9013 10.94 13 0.0154 800.00
10 13.14 723 0.9952 11.17 14 0.0159
14.00
11 13.24 764 1.0595 11.16 14 0.0161 600.00
12 13.19 791 1.0928 11.32 14 0.0164
12.00
400.00
13 13.14 896 1.2322 11.53 14 0.0168
14 13.14 965 1.3276 11.52 14 10.00
0.0168 200.00
15 12.99 1011 1.3752 11.67 14 0.017
0.00
16 12.71 1112 1.4803 11.68 139 0.16968.00

Nm
0
17 12.35 1180 1.5253 11.8 222 0.2741
18 11.96 1224 1.5327 11.83 277 0.34336.00
19 11.32 1254 1.487 12.04 314 0.396
20 10.66 1331 1.4858 12.15 339 0.43094.00
21 9.87 1382 1.4275 12.34 355 0.4588
22 9.02 1416 1.3367 12.46 366 0.47772.00
23 8.07 1481 1.252 12.51 373 0.489
0.00
24 7.16 1525 1.1431 12.5 465 0.6083 0
25 6.21 1554 1.0103 12.55 526 0.6913
26 5.31 1602 0.8912 12.66 567 0.7513
27 4.47 1635 0.7643 12.86 594 0.7994
28 3.75 1673 0.6568 12.97 612 0.8308
29 3.1 1698 0.5514 13.04 624 0.8515
30 2.53 1715 0.4547 13.03 693 0.9447
31 2.11 1735 0.3837 13.08 738 1.0115
32 1.71 1749 0.3123 13.24 769 1.0656
33 1.4 1758 0.257 13.35 789 1.1029
34 1.17 1768 0.2164 13.37 803 1.1235
35 0.98 1775 0.1819 13.34 864 1.2068
36 0.85 1779 0.159 13.44 905 1.2734
37 0.77 1783 0.143 13.53 932 1.3209
38 0.62 1786 0.1156 13.56 951 1.3493
39 0.59 1789 0.1109 13.48 1011 1.4266
40 0.56 1791 0.1051 13.49 1051 1.4851
41 0.46 1792 0.0871 13.5 1078 1.5241
42 0.54 1792 0.1005 13.45 1096 1.5434
43 0.47 1793 0.0881 13.28 1152 1.6025
44 0.39 1793 0.0735 13.19 1189 1.6429
45 0.34 1795 0.0641 13.1 1214 1.6653
46 0.29 1795 0.0552 12.83 1231 1.6539
47 0.29 1796 0.0554 12.6 1281 1.6897
48 0.25 1797 0.048 12.34 1314 1.6985
49 0.18 1797 0.0332 12.01 1337 1.6813
50 0.13 1797 0.0254 11.55 1385 1.6753
51 0.08 1797 0.0141 11.2 1418 1.6624
52 0.05 1796 0.0101 10.71 1440 1.6143
53 0.06 1797 0.012 10.25 1482 1.5904
54 0.08 1797 0.0144 9.73 1510 1.5388
55 0.09 1798 0.0169 9.25 1529 1.4811
56 0.11 1797 0.0206 8.7 1561 1.4221
57 0.11 1797 0.0198 8.27 1583 1.3714
58 0.16 1796 0.0306 7.78 1598 1.3012
59 0.18 1796 0.0334 7.36 1622 1.2494
60 0.15 1795 0.0284 6.96 1638 1.1934
61 0.16 1796 0.0308 6.58 1649 1.1358
62 0.2 1796 0.0368 6.25 1665 1.09
63 0.16 1796 0.0301 5.99 1675 1.0511
64 0.15 1794 0.0288 5.72 1683 1.007
65 0.17 1793 0.031 5.51 1693 0.9772
66 0.2 1792 0.0377 5.39 1700 0.9585
67 0.21 1794 0.0396 5.17 1704 0.9218
68 0.18 1795 0.0334 5.05 1710 0.9045
69 0.2 1796 0.0382 4.91 1715 0.8822
70 0.19 1797 0.0365 4.81 1717 0.8645
71 0.15 1797 0.0282 4.71 1721 0.849
72 0.15 1794 0.0275 4.65 1723 0.8384
73 0.17 1793 0.0313 4.54 1726 0.8206
74 0.17 1791 0.0322 4.54 1728 0.8212
75 0.19 1793 0.0354 4.45 1729 0.8052
76 0.18 1795 0.0335 4.44 1731 0.804
77 0.18 1797 0.0331 4.42 1732 0.8007
78 0.18 1798 0.0334 4.38 1733 0.7948
79 0.18 1799 0.033 4.35 1733 0.7893
80 0.18 1796 0.0345 4.38 1733 0.7951
81 0.2 1794 0.038 4.31 1734 0.783
82 0.17 1793 0.032 4.35 1734 0.7899
83 0.17 1794 0.0318 4.35 1734 0.7898
84 0.18 1795 0.0331 4.34 1735 0.7875
85 0.17 1796 0.0323 4.36 1735 0.7915
86 0.18 1798 0.0334 4.35 1735 0.7897
87 0.17 1798 0.0328 4.33 1735 0.7868
88 0.17 1796 0.0314 4.36 1735 0.7925
89 0.18 1794 0.0342 4.34 1735 0.789
90 0.15 1792 0.0275 4.34 1735 0.7883
91 0.15 1794 0.0285 4.36 1735 0.7915
92 0.18 1794 0.0343 4.33 1735 0.7861
93 0.17 1795 0.031 4.35 1735 0.7903
94 0.15 1797 0.0289 4.34 1735 0.7878
95 0.15 1798 0.0274 4.32 1735 0.7842
96 0.15 1795 0.0276 4.3 1735 0.7812
97 0.16 1793 0.0299 4.34 1735 0.7876
98 0.16 1792 0.0304 4.32 1735 0.7846
99 0.17 1794 0.0327 4.36 1735 0.7924
100 0.19 1794 0.0349 4.31 1735 0.7833
101 0.14 1795 0.0271 4.33 1735 0.7865
102 0.13 1797 0.0236 4.32 1735 0.7855
103 0.16 1798 0.03 4.32 1735 0.7852
104 0.15 1798 0.0287 4.32 1735 0.785
105 0.13 1796 0.0247 4.38 1735 0.7962
106 0.14 1794 0.0254 4.29 1735 0.7795
107 0.16 1795 0.0297 4.34 1735 0.7878
108 0.15 1795 0.0291 4.32 1735 0.7853
109 0.13 1795 0.025 4.32 1735 0.785
110 0.15 1797 0.028 4.31 1735 0.7829
111 0.17 1798 0.0314 4.34 1735 0.7876
112 0.12 1799 0.0228 4.32 1735 0.7841
113 0.11 1796 0.0201 4.35 1735 0.7903
114 0.14 1794 0.0262 4.3 1735 0.7814
115 0.16 1795 0.0308 4.31 1735 0.7838
116 0.14 1795 0.0264 4.33 1735 0.7866
117 0.14 1795 0.0257 4.32 1735 0.7847
118 0.15 1797 0.0273 4.34 1735 0.788
119 0.15 1798 0.0275 4.38 1735 0.7955
120 0.14 1799 0.0257 4.31 1735 0.7834
121 0.16 1796 0.0307 4.33 1735 0.7866
122 0.19 1794 0.0352 4.33 1735 0.7862
123 0.16 1793 0.0293 4.29 1735 0.78
124 0.14 1794 0.026 4.33 1735 0.7865
125 0.14 1794 0.0255 4.31 1735 0.7828
126 0.15 1796 0.0283 4.3 1735 0.7806
127 0.13 1798 0.0253 4.32 1735 0.7841
128 0.13 1798 0.0236 4.33 1735 0.7859
129 0.14 1796 0.0259 4.32 1735 0.7854
130 0.17 1794 0.0311 4.37 1735 0.7932
131 0.14 1792 0.0266 4.32 1735 0.7842
132 0.16 1794 0.0299 4.35 1735 0.7896
133 0.18 1794 0.0333 4.33 1735 0.7868
134 0.14 1795 0.026 4.32 1735 0.784
135 0.13 1797 0.0238 4.3 1735 0.7814
136 0.14 1798 0.0269 4.34 1735 0.7886
137 0.13 1795 0.0252 4.31 1735 0.7822
138 0.13 1793 0.0252 4.35 1735 0.7907
139 0.13 1792 0.0246 4.31 1735 0.7823
140 0.18 1794 0.0338 4.33 1735 0.7872
141 0.18 1794 0.0338 4.31 1735 0.7835
142 0.14 1795 0.027 4.3 1735 0.7819
143 0.14 1797 0.027 4.29 1735 0.7786
144 0.17 1798 0.0322 4.34 1735 0.7886
145 0.16 1798 0.0302 4.29 1735 0.7786
146 0.13 1796 0.0251 4.33 1735 0.7872
147 0.12 1794 0.0231 4.33 1735 0.7858
148 0.13 1795 0.025 4.32 1735 0.7848
149 0.14 1795 0.0257 4.31 1735 0.7827
150 0.12 1795 0.023 4.33 1735 0.7867
151 0.14 1797 0.0267 4.31 1735 0.7837
152 0.16 1798 0.0308 4.36 1735 0.7929
153 0.12 1799 0.023 4.32 1735 0.7842
154 0.12 1796 0.0217 4.31 1735 0.7829
155 0.13 1794 0.0249 4.34 1735 0.7876
156 0.15 1795 0.0276 4.33 1735 0.7866
157 0.14 1795 0.0263 4.34 1735 0.7878
158 0.14 1795 0.0265 4.37 1735 0.7931
159 0.15 1797 0.029 4.3 1735 0.781
160 0.16 1798 0.0295 4.33 1735 0.7858
161 0.15 1799 0.0284 4.32 1735 0.7854
162 0.16 1796 0.0305 4.3 1735 0.7817
163 0.17 1794 0.0322 4.33 1735 0.7871
164 0.15 1793 0.0276 4.33 1735 0.7873
165 0.16 1794 0.03 4.35 1735 0.7903
166 0.15 1794 0.0281 4.36 1735 0.7911
167 0.15 1796 0.0284 4.31 1735 0.7836
168 0.13 1798 0.0254 4.29 1735 0.7786
169 0.13 1798 0.0236 4.34 1735 0.7875
170 0.15 1796 0.0276 4.29 1735 0.7796
171 0.16 1794 0.0297 4.32 1735 0.7843
172 0.14 1792 0.0262 4.32 1735 0.7843
173 0.16 1794 0.0294 4.32 1735 0.7844
174 0.18 1794 0.0335 4.34 1735 0.7875
175 0.17 1795 0.0328 4.36 1735 0.7912
176 0.16 1797 0.0309 4.3 1735 0.7812
177 0.17 1798 0.0319 4.35 1735 0.7906
178 0.17 1795 0.0317 4.3 1735 0.7811
179 0.16 1793 0.0304 4.32 1735 0.7855
180 0.14 1792 0.0267 4.32 1735 0.7852
181 0.16 1794 0.0294 4.34 1735 0.7877
182 0.17 1794 0.0323 4.3 1735 0.7814
183 0.13 1795 0.0242 4.34 1735 0.7891
184 0.14 1797 0.0263 4.29 1735 0.78
185 0.17 1798 0.0324 4.33 1735 0.786
186 0.17 1798 0.0315 4.33 1735 0.7863
187 0.14 1796 0.0262 4.32 1735 0.7849
188 0.14 1794 0.0265 4.31 1735 0.7822
189 0.16 1795 0.0295 4.33 1735 0.7866
190 0.15 1795 0.0281 4.3 1735 0.7809
191 0.14 1795 0.0258 4.34 1735 0.7879
192 0.16 1797 0.0294 4.29 1735 0.7793
193 0.17 1798 0.0312 4.32 1735 0.7841
194 0.13 1799 0.0252 4.33 1735 0.7862
195 0.13 1796 0.0241 4.32 1735 0.7839
196 0.15 1794 0.0291 4.31 1735 0.783
197 0.16 1795 0.0307 4.34 1735 0.7879
198 0.15 1795 0.028 4.29 1735 0.7787
199 0.13 1795 0.0245 4.31 1735 0.7823
200 0.12 1797 0.0231 4.31 1735 0.7833
201 0.14 1798 0.0256 4.29 1735 0.7784
202 0.13 1799 0.0246 4.3 1735 0.7813
203 0.16 1796 0.03 4.3 1735 0.7804
204 0.19 1794 0.0359 4.31 1735 0.7826
205 4.31 1735 0.7832
206 4.3 1735 0.782
207 4.27 1735 0.7764
208 4.32 1735 0.7849
209 4.28 1735 0.7781
210 4.32 1735 0.7852
211 4.34 1735 0.7889
212 4.33 1735 0.7857
213 4.32 1735 0.7848
214 4.37 1735 0.7941
215 4.3 1735 0.7803
Velocidade
2,000.00 1.80

1,800.00 1.60

1,600.00
1.40

1,400.00
1.20
1,200.00 Torque 1.00
1,000.00
rpm

kW
0.80
800.00
0.60
600.00

0.40
400.00

200.00 0.20

0.00 0.00
0 50 100 150 200 0

Amostras

Vel oci da de (rpm) - Sem Carga Vel oci da de (rpm) - Com Carga P

0 50 100 150 200

Amostras

Torque (Nm) - Sem Carga Torque (Nm) - Com Carga


Potência
1.80

1.60

1.40

1.20

1.00

0.80

0.60

0.40

0.20

0.00
0 50 100 150 200

Amostras

Potência (kW) - Sem Ca rga Potênci a (kW)- Com Carga


Sem Carga Com Carga

Amostra Velocidade (rpm) Torque (Nm) - Potência(kW) Velocidade (rpm) Torque (Nm) Potência(kW)-
- Sem Carga Sem Carga - Sem Carga - Com Carga - Com Carga Com Carga

1 0 12.04 0 0 200 0 400 12.04 600 0 800 1


2 158 11.97 16.000.1976 5 8.45 0.0041
3 263 12.18 0.3352 8 10.26 0.0084
4 333 12.25 14.000.4268 10 10.78 0.0111
5 380 12.58 0.5001 11 10.53 0.0124
6 411 12.69 0.5459 12 10.97 0.014
12.00
7 431 12.86 0.5809 13 10.6 0.0142
8 570 12.88 0.7684 13 11.22 0.0155
9 662 13.01 10.000.9013 13 10.94 0.0154
10 723 13.14 0.9952 14 11.17 0.0159
11 764 13.24 1.0595 14 11.16 0.0161
Torque

8.00
12 791 13.19 1.0928 14 11.32 0.0164
13 896 13.14 1.2322 14 11.53 0.0168
14 965 13.14 6.001.3276 14 11.52 0.0168
15 1011 12.99 1.3752 14 11.67 0.017
16 1112 12.71 4.001.4803 139 11.68 0.1696
17 1180 12.35 1.5253 222 11.8 0.2741
18 1224 11.96 1.5327 277 11.83 0.3433
19 1254 11.32 2.00 1.487 314 12.04 0.396
20 1331 10.66 1.4858 339 12.15 0.4309
21 1382 9.87 0.001.4275 355 12.34 0.4588
0 200 400 600 800 1
22 1416 9.02 1.3367 366 12.46 0.4777
23 1481 8.07 1.252 373 12.51 0.489 velocida
24 1525 7.16 1.1431 465 12.5 0.6083
Torque (Nm) - Sem Ca rga
25 1554 6.21 1.0103 526 12.55 0.6913Torque (Nm) - Com Ca rga
26 1602 5.31 0.8912 567 12.66 0.7513
27 1635 4.47 0.7643 594 12.86 0.7994
28 1673 3.75 0.6568 612 12.97 0.8308
29 1698 3.1 0.5514 624 13.04 0.8515
30 1715 2.53 0.4547 693 13.03 0.9447
31 1735 2.11 0.3837 738 13.08 1.0115
32 1749 1.71 0.3123 769 13.24 1.0656
33 1758 1.4 0.257 789 13.35 1.1029
34 1768 1.17 0.2164 803 13.37 1.1235
35 1775 0.98 0.1819 864 13.34 1.2068
36 1779 0.85 0.159 905 13.44 1.2734
37 1783 0.77 0.143 932 13.53 1.3209
38 1786 0.62 0.1156 951 13.56 1.3493
39 1789 0.59 0.1109 1011 13.48 1.4266
40 1791 0.56 0.1051 1051 13.49 1.4851
41 1792 0.46 0.0871 1078 13.5 1.5241
42 1792 0.54 0.1005 1096 13.45 1.5434
43 1793 0.47 0.0881 1152 13.28 1.6025
44 1793 0.39 0.0735 1189 13.19 1.6429
45 1795 0.34 0.0641 1214 13.1 1.6653
46 1795 0.29 0.0552 1231 12.83 1.6539
47 1796 0.29 0.0554 1281 12.6 1.6897
48 1797 0.25 0.048 1314 12.34 1.6985
49 1797 0.18 0.0332 1337 12.01 1.6813
50 1797 0.13 0.0254 1385 11.55 1.6753
51 1797 0.08 0.0141 1418 11.2 1.6624
52 1796 0.05 0.0101 1440 10.71 1.6143
53 1797 0.06 0.012 1482 10.25 1.5904
54 1797 0.08 0.0144 1510 9.73 1.5388
55 1798 0.09 0.0169 1529 9.25 1.4811
56 1797 0.11 0.0206 1561 8.7 1.4221
57 1797 0.11 0.0198 1583 8.27 1.3714
58 1796 0.16 0.0306 1598 7.78 1.3012
59 1796 0.18 0.0334 1622 7.36 1.2494
60 1795 0.15 0.0284 1638 6.96 1.1934
61 1796 0.16 0.0308 1649 6.58 1.1358
62 1796 0.2 0.0368 1665 6.25 1.09
63 1796 0.16 0.0301 1675 5.99 1.0511
64 1794 0.15 0.0288 1683 5.72 1.007
65 1793 0.17 0.031 1693 5.51 0.9772
66 1792 0.2 0.0377 1700 5.39 0.9585
67 1794 0.21 0.0396 1704 5.17 0.9218
68 1795 0.18 0.0334 1710 5.05 0.9045
69 1796 0.2 0.0382 1715 4.91 0.8822
70 1797 0.19 0.0365 1717 4.81 0.8645
71 1797 0.15 0.0282 1721 4.71 0.849
72 1794 0.15 0.0275 1723 4.65 0.8384
73 1793 0.17 0.0313 1726 4.54 0.8206
74 1791 0.17 0.0322 1728 4.54 0.8212
75 1793 0.19 0.0354 1729 4.45 0.8052
76 1795 0.18 0.0335 1731 4.44 0.804
77 1797 0.18 0.0331 1732 4.42 0.8007
78 1798 0.18 0.0334 1733 4.38 0.7948
79 1799 0.18 0.033 1733 4.35 0.7893
80 1796 0.18 0.0345 1733 4.38 0.7951
81 1794 0.2 0.038 1734 4.31 0.783
82 1793 0.17 0.032 1734 4.35 0.7899
83 1794 0.17 0.0318 1734 4.35 0.7898
84 1795 0.18 0.0331 1735 4.34 0.7875
85 1796 0.17 0.0323 1735 4.36 0.7915
86 1798 0.18 0.0334 1735 4.35 0.7897
87 1798 0.17 0.0328 1735 4.33 0.7868
88 1796 0.17 0.0314 1735 4.36 0.7925
89 1794 0.18 0.0342 1735 4.34 0.789
90 1792 0.15 0.0275 1735 4.34 0.7883
91 1794 0.15 0.0285 1735 4.36 0.7915
92 1794 0.18 0.0343 1735 4.33 0.7861
93 1795 0.17 0.031 1735 4.35 0.7903
94 1797 0.15 0.0289 1735 4.34 0.7878
95 1798 0.15 0.0274 1735 4.32 0.7842
96 1795 0.15 0.0276 1735 4.3 0.7812
97 1793 0.16 0.0299 1735 4.34 0.7876
98 1792 0.16 0.0304 1735 4.32 0.7846
99 1794 0.17 0.0327 1735 4.36 0.7924
100 1794 0.19 0.0349 1735 4.31 0.7833
101 1795 0.14 0.0271 1735 4.33 0.7865
102 1797 0.13 0.0236 1735 4.32 0.7855
103 1798 0.16 0.03 1735 4.32 0.7852
104 1798 0.15 0.0287 1735 4.32 0.785
105 1796 0.13 0.0247 1735 4.38 0.7962
106 1794 0.14 0.0254 1735 4.29 0.7795
107 1795 0.16 0.0297 1735 4.34 0.7878
108 1795 0.15 0.0291 1735 4.32 0.7853
109 1795 0.13 0.025 1735 4.32 0.785
110 1797 0.15 0.028 1735 4.31 0.7829
111 1798 0.17 0.0314 1735 4.34 0.7876
112 1799 0.12 0.0228 1735 4.32 0.7841
113 1796 0.11 0.0201 1735 4.35 0.7903
114 1794 0.14 0.0262 1735 4.3 0.7814
115 1795 0.16 0.0308 1735 4.31 0.7838
116 1795 0.14 0.0264 1735 4.33 0.7866
117 1795 0.14 0.0257 1735 4.32 0.7847
118 1797 0.15 0.0273 1735 4.34 0.788
119 1798 0.15 0.0275 1735 4.38 0.7955
120 1799 0.14 0.0257 1735 4.31 0.7834
121 1796 0.16 0.0307 1735 4.33 0.7866
122 1794 0.19 0.0352 1735 4.33 0.7862
123 1793 0.16 0.0293 1735 4.29 0.78
124 1794 0.14 0.026 1735 4.33 0.7865
125 1794 0.14 0.0255 1735 4.31 0.7828
126 1796 0.15 0.0283 1735 4.3 0.7806
127 1798 0.13 0.0253 1735 4.32 0.7841
128 1798 0.13 0.0236 1735 4.33 0.7859
129 1796 0.14 0.0259 1735 4.32 0.7854
130 1794 0.17 0.0311 1735 4.37 0.7932
131 1792 0.14 0.0266 1735 4.32 0.7842
132 1794 0.16 0.0299 1735 4.35 0.7896
133 1794 0.18 0.0333 1735 4.33 0.7868
134 1795 0.14 0.026 1735 4.32 0.784
135 1797 0.13 0.0238 1735 4.3 0.7814
136 1798 0.14 0.0269 1735 4.34 0.7886
137 1795 0.13 0.0252 1735 4.31 0.7822
138 1793 0.13 0.0252 1735 4.35 0.7907
139 1792 0.13 0.0246 1735 4.31 0.7823
140 1794 0.18 0.0338 1735 4.33 0.7872
141 1794 0.18 0.0338 1735 4.31 0.7835
142 1795 0.14 0.027 1735 4.3 0.7819
143 1797 0.14 0.027 1735 4.29 0.7786
144 1798 0.17 0.0322 1735 4.34 0.7886
145 1798 0.16 0.0302 1735 4.29 0.7786
146 1796 0.13 0.0251 1735 4.33 0.7872
147 1794 0.12 0.0231 1735 4.33 0.7858
148 1795 0.13 0.025 1735 4.32 0.7848
149 1795 0.14 0.0257 1735 4.31 0.7827
150 1795 0.12 0.023 1735 4.33 0.7867
151 1797 0.14 0.0267 1735 4.31 0.7837
152 1798 0.16 0.0308 1735 4.36 0.7929
153 1799 0.12 0.023 1735 4.32 0.7842
154 1796 0.12 0.0217 1735 4.31 0.7829
155 1794 0.13 0.0249 1735 4.34 0.7876
156 1795 0.15 0.0276 1735 4.33 0.7866
157 1795 0.14 0.0263 1735 4.34 0.7878
158 1795 0.14 0.0265 1735 4.37 0.7931
159 1797 0.15 0.029 1735 4.3 0.781
160 1798 0.16 0.0295 1735 4.33 0.7858
161 1799 0.15 0.0284 1735 4.32 0.7854
162 1796 0.16 0.0305 1735 4.3 0.7817
163 1794 0.17 0.0322 1735 4.33 0.7871
164 1793 0.15 0.0276 1735 4.33 0.7873
165 1794 0.16 0.03 1735 4.35 0.7903
166 1794 0.15 0.0281 1735 4.36 0.7911
167 1796 0.15 0.0284 1735 4.31 0.7836
168 1798 0.13 0.0254 1735 4.29 0.7786
169 1798 0.13 0.0236 1735 4.34 0.7875
170 1796 0.15 0.0276 1735 4.29 0.7796
171 1794 0.16 0.0297 1735 4.32 0.7843
172 1792 0.14 0.0262 1735 4.32 0.7843
173 1794 0.16 0.0294 1735 4.32 0.7844
174 1794 0.18 0.0335 1735 4.34 0.7875
175 1795 0.17 0.0328 1735 4.36 0.7912
176 1797 0.16 0.0309 1735 4.3 0.7812
177 1798 0.17 0.0319 1735 4.35 0.7906
178 1795 0.17 0.0317 1735 4.3 0.7811
179 1793 0.16 0.0304 1735 4.32 0.7855
180 1792 0.14 0.0267 1735 4.32 0.7852
181 1794 0.16 0.0294 1735 4.34 0.7877
182 1794 0.17 0.0323 1735 4.3 0.7814
183 1795 0.13 0.0242 1735 4.34 0.7891
184 1797 0.14 0.0263 1735 4.29 0.78
185 1798 0.17 0.0324 1735 4.33 0.786
186 1798 0.17 0.0315 1735 4.33 0.7863
187 1796 0.14 0.0262 1735 4.32 0.7849
188 1794 0.14 0.0265 1735 4.31 0.7822
189 1795 0.16 0.0295 1735 4.33 0.7866
190 1795 0.15 0.0281 1735 4.3 0.7809
191 1795 0.14 0.0258 1735 4.34 0.7879
192 1797 0.16 0.0294 1735 4.29 0.7793
193 1798 0.17 0.0312 1735 4.32 0.7841
194 1799 0.13 0.0252 1735 4.33 0.7862
195 1796 0.13 0.0241 1735 4.32 0.7839
196 1794 0.15 0.0291 1735 4.31 0.783
197 1795 0.16 0.0307 1735 4.34 0.7879
198 1795 0.15 0.028 1735 4.29 0.7787
199 1795 0.13 0.0245 1735 4.31 0.7823
200 1797 0.12 0.0231 1735 4.31 0.7833
201 1798 0.14 0.0256 1735 4.29 0.7784
202 1799 0.13 0.0246 1735 4.3 0.7813
203 1796 0.16 0.03 1735 4.3 0.7804
204 1794 0.19 0.0359 1735 4.31 0.7826
205 1735 4.31 0.7832
206 1735 4.3 0.782
207 1735 4.27 0.7764
208 1735 4.32 0.7849
209 1735 4.28 0.7781
210 1735 4.32 0.7852
211 1735 4.34 0.7889
212 1735 4.33 0.7857
213 1735 4.32 0.7848
214 1735 4.37 0.7941
215 1735 4.3 0.7803
800 1000 1200 1400 1600 1800 2000
1.80

1.60

1.40

1.20

1.00

Potência
0.80

0.60

0.40

0.20

0.00
800 1000 1200 1400 1600 1800 2000

velocidade (rpm)

ue (Nm) - Com Ca rga Potênci a (kW) - Sem Ca rga Potênci a(kW)- Com Ca rga